createdAt,value
2022-11-29T00:01:27.960Z,31.60
2022-11-29T00:04:01.822Z,29.60
2022-11-29T00:06:38.220Z,28.60
2022-11-29T00:09:16.533Z,30.20
2022-11-29T00:12:07.514Z,25.30
2022-11-29T00:14:41.393Z,28.80
2022-11-29T00:17:16.108Z,24.20
2022-11-29T00:19:49.141Z,27.50
2022-11-29T00:22:23.893Z,29.90
2022-11-29T00:24:57.232Z,31.00
2022-11-29T00:27:31.206Z,25.00
2022-11-29T00:30:05.039Z,26.90
2022-11-29T00:32:38.580Z,26.70
2022-11-29T00:35:13.129Z,26.50
2022-11-29T00:37:46.723Z,24.90
2022-11-29T00:40:20.137Z,27.30
2022-11-29T00:42:53.563Z,23.50
2022-11-29T00:45:26.662Z,25.40
2022-11-29T00:48:00.111Z,29.70
2022-11-29T00:50:33.643Z,25.90
2022-11-29T00:53:07.210Z,27.70
2022-11-29T00:55:40.484Z,26.90
2022-11-29T00:58:14.525Z,25.20
2022-11-29T01:00:47.946Z,25.20
2022-11-29T01:03:22.262Z,25.00
2022-11-29T01:06:01.886Z,25.50
2022-11-29T01:08:35.058Z,24.00
2022-11-29T01:11:14.307Z,26.90
2022-11-29T01:13:48.728Z,25.70
2022-11-29T01:16:23.127Z,29.20
2022-11-29T01:18:56.542Z,26.40
2022-11-29T01:21:30.046Z,27.20
2022-11-29T01:24:05.515Z,24.40
2022-11-29T01:26:38.863Z,25.90
2022-11-29T01:29:15.497Z,25.70
2022-11-29T01:31:49.160Z,26.90
2022-11-29T01:34:22.129Z,23.20
2022-11-29T01:36:55.797Z,25.40
2022-11-29T01:39:28.792Z,28.00
2022-11-29T01:42:02.666Z,26.60
2022-11-29T01:45:24.579Z,25.00
2022-11-29T01:48:01.278Z,26.50
2022-11-29T01:50:34.426Z,28.20
2022-11-29T01:53:09.010Z,26.20
2022-11-29T01:55:49.487Z,24.60
2022-11-29T01:58:23.950Z,27.70
2022-11-29T02:00:57.439Z,30.50
2022-11-29T02:03:34.362Z,24.40
2022-11-29T02:06:09.342Z,25.20
2022-11-29T02:08:45.738Z,26.10
2022-11-29T02:11:53.345Z,24.80
2022-11-29T02:14:45.958Z,24.10
2022-11-29T02:17:31.712Z,26.40
2022-11-29T02:20:38.386Z,24.10
2022-11-29T02:23:48.267Z,30.10
2022-11-29T02:26:45.456Z,29.40
2022-11-29T02:29:55.891Z,24.80
2022-11-29T02:33:08.425Z,25.00
2022-11-29T02:36:26.462Z,26.40
2022-11-29T02:39:41.861Z,24.90
2022-11-29T02:42:56.023Z,24.50
2022-11-29T02:46:04.735Z,36.00
2022-11-29T02:48:59.131Z,22.40
2022-11-29T02:51:43.034Z,25.00
2022-11-29T02:54:29.291Z,25.80
2022-11-29T02:57:13.358Z,31.80
2022-11-29T02:59:58.895Z,26.80
2022-11-29T03:02:41.086Z,27.00
2022-11-29T03:05:26.610Z,28.20
2022-11-29T03:08:12.697Z,26.20
2022-11-29T03:11:03.013Z,26.40
2022-11-29T03:13:57.426Z,25.70
2022-11-29T03:16:44.966Z,25.90
2022-11-29T03:20:03.334Z,24.60
2022-11-29T03:22:56.431Z,28.70
2022-11-29T03:25:39.006Z,25.80
2022-11-29T03:28:20.530Z,24.70
2022-11-29T03:31:02.100Z,31.50
2022-11-29T03:33:52.837Z,27.40
2022-11-29T03:36:41.477Z,26.10
2022-11-29T03:39:24.617Z,29.30
2022-11-29T03:42:04.231Z,24.70
2022-11-29T03:44:48.161Z,28.00
2022-11-29T03:47:29.721Z,27.80
2022-11-29T03:50:08.925Z,21.10
2022-11-29T03:52:58.435Z,29.00
2022-11-29T03:55:52.624Z,25.70
2022-11-29T03:58:56.696Z,31.20
2022-11-29T04:02:23.456Z,28.10
2022-11-29T04:05:53.753Z,26.70
2022-11-29T04:09:36.230Z,25.10
2022-11-29T04:12:50.485Z,25.80
2022-11-29T04:15:59.927Z,25.90
2022-11-29T04:19:28.543Z,27.80
2022-11-29T04:22:54.167Z,26.80
2022-11-29T04:26:19.819Z,27.20
2022-11-29T04:30:01.065Z,27.10
2022-11-29T04:33:18.813Z,30.10
2022-11-29T04:36:15.787Z,26.20
2022-11-29T04:39:38.568Z,25.40
2022-11-29T04:42:36.618Z,31.10
2022-11-29T04:45:55.522Z,24.90
2022-11-29T04:49:25.909Z,27.90
2022-11-29T04:52:35.011Z,26.00
2022-11-29T04:55:30.490Z,21.10
2022-11-29T04:58:18.936Z,27.10
2022-11-29T05:01:08.625Z,26.40
2022-11-29T05:03:53.937Z,25.90
2022-11-29T05:06:41.613Z,26.00
2022-11-29T05:09:29.253Z,31.10
2022-11-29T05:12:16.936Z,23.90
2022-11-29T05:15:21.856Z,27.50
2022-11-29T05:18:09.884Z,31.90
2022-11-29T05:20:53.553Z,28.70
2022-11-29T05:23:50.308Z,26.00
2022-11-29T05:26:32.677Z,26.00
2022-11-29T05:29:13.174Z,32.20
2022-11-29T05:32:23.544Z,34.40
2022-11-29T05:35:50.833Z,31.80
2022-11-29T05:38:57.733Z,37.30
2022-11-29T05:41:58.282Z,34.30
2022-11-29T05:44:42.024Z,32.70
2022-11-29T05:47:29.873Z,31.60
2022-11-29T05:50:18.421Z,31.90
2022-11-29T05:53:02.181Z,28.10
2022-11-29T05:55:55.523Z,30.40
2022-11-29T05:58:52.098Z,31.90
2022-11-29T06:01:31.949Z,33.60
2022-11-29T06:04:16.383Z,28.60
2022-11-29T06:06:59.582Z,25.30
2022-11-29T06:09:41.190Z,30.20
2022-11-29T06:12:22.919Z,28.70
2022-11-29T06:18:55.209Z,29.10
2022-11-29T06:21:40.458Z,25.80
2022-11-29T06:24:36.405Z,35.20
2022-11-29T06:27:41.168Z,35.90
2022-11-29T06:30:25.370Z,38.40
2022-11-29T06:33:06.531Z,31.40
2022-11-29T06:35:50.038Z,30.30
2022-11-29T06:38:29.647Z,36.90
2022-11-29T06:41:05.077Z,36.50
2022-11-29T06:43:40.142Z,40.80
2022-11-29T06:46:28.172Z,43.00
2022-11-29T06:49:14.012Z,34.80
2022-11-29T06:52:07.269Z,33.80
2022-11-29T06:55:06.527Z,41.40
2022-11-29T06:57:57.694Z,28.60
2022-11-29T07:00:45.058Z,39.10
2022-11-29T07:03:41.106Z,34.40
2022-11-29T07:06:24.350Z,29.30
2022-11-29T07:09:05.519Z,37.80
2022-11-29T07:11:41.655Z,29.00
2022-11-29T07:14:18.161Z,40.40
2022-11-29T07:17:09.075Z,37.00
2022-11-29T07:20:05.411Z,30.50
2022-11-29T07:23:04.750Z,39.60
2022-11-29T07:25:52.472Z,30.40
2022-11-29T07:28:47.633Z,32.50
2022-11-29T07:31:40.516Z,32.90
2022-11-29T07:34:29.210Z,38.50
2022-11-29T07:37:15.189Z,30.80
2022-11-29T07:40:03.143Z,34.30
2022-11-29T07:43:01.174Z,37.10
2022-11-29T07:45:37.675Z,25.40
2022-11-29T07:48:13.411Z,28.90
2022-11-29T07:50:48.990Z,33.40
2022-11-29T07:53:26.065Z,31.70
2022-11-29T07:56:01.519Z,30.60
2022-11-29T07:58:35.624Z,38.50
2022-11-29T08:01:10.511Z,40.20
2022-11-29T08:03:46.772Z,40.60
2022-11-29T08:06:27.975Z,42.40
2022-11-29T08:09:07.321Z,41.30
2022-11-29T08:11:42.828Z,38.20
2022-11-29T08:14:15.799Z,36.20
2022-11-29T08:16:49.709Z,36.40
2022-11-29T08:19:23.654Z,34.40
2022-11-29T08:21:57.459Z,27.20
2022-11-29T08:24:31.549Z,34.20
2022-11-29T08:27:10.239Z,41.10
2022-11-29T08:29:43.697Z,43.30
2022-11-29T08:32:18.095Z,27.20
2022-11-29T08:34:53.310Z,41.20
2022-11-29T08:37:28.295Z,37.00
2022-11-29T08:40:02.200Z,33.00
2022-11-29T08:42:36.313Z,33.50
2022-11-29T08:45:13.691Z,35.40
2022-11-29T08:47:48.170Z,26.70
2022-11-29T08:50:23.829Z,28.70
2022-11-29T08:53:17.743Z,29.00
2022-11-29T08:55:51.918Z,30.00
2022-11-29T08:58:25.966Z,38.80
2022-11-29T09:01:00.366Z,32.90
2022-11-29T09:03:53.103Z,35.90
2022-11-29T09:06:27.284Z,33.80
2022-11-29T09:09:03.088Z,35.10
2022-11-29T09:11:38.992Z,34.80
2022-11-29T09:14:19.042Z,28.20
2022-11-29T09:16:52.932Z,32.20
2022-11-29T09:19:26.618Z,31.50
2022-11-29T09:22:00.304Z,29.80
2022-11-29T09:24:34.692Z,39.20
2022-11-29T09:27:08.691Z,33.60
2022-11-29T09:29:42.061Z,32.20
2022-11-29T09:32:19.031Z,26.40
2022-11-29T09:34:52.938Z,32.00
2022-11-29T09:37:26.546Z,33.00
2022-11-29T09:39:59.973Z,34.90
2022-11-29T09:42:57.986Z,33.80
2022-11-29T09:45:39.501Z,39.70
2022-11-29T09:48:39.681Z,26.80
2022-11-29T09:51:28.282Z,26.80
2022-11-29T09:54:24.893Z,32.50
2022-11-29T09:57:00.274Z,26.60
2022-11-29T09:59:41.462Z,24.30
2022-11-29T10:02:27.050Z,25.60
2022-11-29T10:05:10.123Z,30.00
2022-11-29T10:07:49.368Z,27.70
2022-11-29T10:10:38.163Z,34.30
2022-11-29T10:13:21.894Z,31.00
2022-11-29T10:16:07.675Z,28.10
2022-11-29T10:18:49.981Z,28.90
2022-11-29T10:21:31.435Z,26.00
2022-11-29T10:24:11.546Z,26.00
2022-11-29T10:26:49.669Z,24.90
2022-11-29T10:29:23.583Z,27.80
2022-11-29T10:32:10.044Z,32.70
2022-11-29T10:34:45.131Z,23.10
2022-11-29T10:37:23.854Z,24.30
2022-11-29T10:40:05.283Z,22.60
2022-11-29T10:42:53.397Z,23.50
2022-11-29T10:45:35.716Z,23.70
2022-11-29T10:48:17.638Z,31.00
2022-11-29T10:50:54.336Z,26.00
2022-11-29T10:53:36.319Z,27.50
2022-11-29T10:56:22.668Z,29.60
2022-11-29T10:59:09.498Z,26.80
2022-11-29T11:01:45.703Z,27.70
2022-11-29T11:04:29.984Z,26.70
2022-11-29T11:07:07.772Z,25.90
2022-11-29T11:09:49.535Z,25.10
2022-11-29T11:12:28.407Z,25.00
2022-11-29T11:15:30.312Z,24.90
2022-11-29T11:18:07.403Z,22.40
2022-11-29T11:20:45.068Z,23.20
2022-11-29T11:23:30.836Z,21.70
2022-11-29T11:26:08.415Z,27.40
2022-11-29T11:28:50.220Z,24.40
2022-11-29T11:31:35.604Z,23.80
2022-11-29T11:34:34.459Z,24.70
2022-11-29T11:37:28.676Z,21.70
2022-11-29T11:40:20.515Z,22.10
2022-11-29T11:42:54.598Z,27.30
2022-11-29T11:45:39.196Z,26.30
2022-11-29T11:48:20.158Z,25.80
2022-11-29T11:50:59.900Z,27.00
2022-11-29T11:53:38.356Z,29.00
2022-11-29T11:56:17.575Z,22.70
2022-11-29T11:58:58.658Z,24.10
2022-11-29T12:01:40.446Z,24.80
2022-11-29T12:04:21.511Z,21.40
2022-11-29T12:07:03.320Z,25.00
2022-11-29T12:09:45.237Z,23.10
2022-11-29T12:12:25.476Z,22.30
2022-11-29T12:15:04.825Z,25.10
2022-11-29T12:17:48.907Z,24.20
2022-11-29T12:20:31.909Z,22.60
2022-11-29T12:23:32.715Z,21.30
2022-11-29T12:26:34.469Z,23.60
2022-11-29T12:29:14.761Z,24.90
2022-11-29T12:32:08.552Z,25.20
2022-11-29T12:35:20.097Z,24.10
2022-11-29T12:38:05.908Z,23.10
2022-11-29T12:40:51.907Z,26.60
2022-11-29T12:43:50.193Z,26.90
2022-11-29T12:46:29.733Z,24.40
2022-11-29T12:49:18.230Z,22.00
2022-11-29T12:52:05.592Z,24.60
2022-11-29T12:55:05.179Z,21.10
2022-11-29T12:57:52.321Z,21.70
2022-11-29T13:00:28.810Z,22.50
2022-11-29T13:03:21.787Z,24.30
2022-11-29T13:06:13.371Z,22.20
2022-11-29T13:09:15.421Z,21.40
2022-11-29T13:12:00.134Z,20.80
2022-11-29T13:14:55.412Z,24.00
2022-11-29T13:17:44.828Z,23.20
2022-11-29T13:20:39.105Z,20.90
2022-11-29T13:23:46.000Z,23.80
2022-11-29T13:26:23.571Z,23.90
2022-11-29T13:28:58.791Z,24.40
2022-11-29T13:31:33.786Z,22.90
2022-11-29T13:34:15.715Z,23.30
2022-11-29T13:37:06.733Z,21.30
2022-11-29T13:39:59.321Z,21.70
2022-11-29T13:42:47.130Z,24.60
2022-11-29T13:45:28.481Z,24.50
2022-11-29T13:48:28.017Z,24.70
2022-11-29T13:51:22.836Z,25.60
2022-11-29T13:53:58.920Z,23.60
2022-11-29T13:56:46.827Z,23.40
2022-11-29T13:59:31.560Z,24.70
2022-11-29T14:02:06.189Z,24.90
2022-11-29T14:04:46.543Z,26.50
2022-11-29T14:07:25.096Z,25.80
2022-11-29T14:10:06.950Z,28.30
2022-11-29T14:12:52.493Z,25.70
2022-11-29T14:15:32.463Z,23.60
2022-11-29T14:18:09.666Z,22.80
2022-11-29T14:21:00.172Z,22.30
2022-11-29T14:23:47.178Z,26.10
2022-11-29T14:26:38.874Z,26.90
2022-11-29T14:29:56.305Z,22.00
2022-11-29T14:32:45.972Z,22.00
2022-11-29T14:35:29.622Z,23.70
2022-11-29T14:38:14.956Z,26.30
2022-11-29T14:40:59.988Z,25.10
2022-11-29T14:43:41.246Z,30.60
2022-11-29T14:46:33.023Z,25.70
2022-11-29T14:49:19.856Z,28.50
2022-11-29T14:52:21.827Z,23.30
2022-11-29T14:55:07.917Z,24.90
2022-11-29T14:58:19.734Z,25.40
2022-11-29T15:01:10.646Z,24.40
2022-11-29T15:03:54.888Z,23.80
2022-11-29T15:06:38.202Z,27.10
2022-11-29T15:09:24.586Z,23.20
2022-11-29T15:12:04.996Z,23.70
2022-11-29T15:14:57.659Z,24.70
2022-11-29T15:17:40.487Z,26.20
2022-11-29T15:20:46.415Z,29.30
2022-11-29T15:23:23.304Z,24.10
2022-11-29T15:26:03.328Z,26.80
2022-11-29T15:28:37.178Z,24.80
2022-11-29T15:31:15.849Z,21.90
2022-11-29T15:33:52.672Z,23.60
2022-11-29T15:36:26.707Z,21.90
2022-11-29T15:39:01.908Z,24.50
2022-11-29T15:41:47.111Z,23.50
2022-11-29T15:44:26.331Z,23.40
2022-11-29T15:47:16.168Z,24.70
2022-11-29T15:49:50.218Z,22.00
2022-11-29T15:52:34.476Z,27.00
2022-11-29T15:55:17.282Z,22.80
2022-11-29T15:57:55.775Z,23.70
2022-11-29T16:00:34.124Z,24.00
2022-11-29T16:03:20.561Z,26.80
2022-11-29T16:06:07.921Z,23.70
2022-11-29T16:08:45.954Z,25.20
2022-11-29T16:11:25.970Z,22.80
2022-11-29T16:14:18.885Z,24.50
2022-11-29T16:16:57.135Z,24.60
2022-11-29T16:19:40.288Z,24.40
2022-11-29T16:22:25.867Z,24.20
2022-11-29T16:25:08.135Z,21.80
2022-11-29T16:27:43.555Z,22.80
2022-11-29T16:30:29.647Z,23.80
2022-11-29T16:33:05.582Z,22.20
2022-11-29T16:35:39.669Z,25.20
2022-11-29T16:38:23.955Z,21.80
2022-11-29T16:41:21.933Z,23.60
2022-11-29T16:43:58.915Z,25.10
2022-11-29T16:46:38.401Z,26.20
2022-11-29T16:49:37.558Z,23.10
2022-11-29T16:52:30.879Z,25.80
2022-11-29T16:55:04.553Z,22.40
2022-11-29T16:57:39.937Z,22.30
2022-11-29T17:00:30.100Z,20.30
2022-11-29T17:03:03.858Z,23.20
2022-11-29T17:05:43.115Z,24.70
2022-11-29T17:08:19.559Z,24.50
2022-11-29T17:10:53.647Z,24.50
2022-11-29T17:13:27.683Z,23.00
2022-11-29T17:16:01.885Z,22.50
2022-11-29T17:18:36.001Z,22.60
2022-11-29T17:21:17.349Z,26.00
2022-11-29T17:23:52.041Z,24.30
2022-11-29T17:26:26.137Z,24.10
2022-11-29T17:29:00.500Z,24.60
2022-11-29T17:31:34.377Z,23.00
2022-11-29T17:34:09.243Z,23.70
2022-11-29T17:36:45.499Z,25.40
2022-11-29T17:39:20.525Z,24.50
2022-11-29T17:41:54.503Z,22.80
2022-11-29T17:44:28.699Z,24.30
2022-11-29T17:47:03.359Z,25.50
2022-11-29T17:49:37.592Z,26.10
2022-11-29T17:52:12.065Z,23.30
2022-11-29T17:54:45.634Z,24.60
2022-11-29T17:57:20.236Z,22.40
2022-11-29T17:59:54.237Z,23.90
2022-11-29T18:02:27.643Z,25.50
2022-11-29T18:05:01.858Z,27.40
2022-11-29T18:07:55.572Z,24.70
2022-11-29T18:10:30.237Z,21.50
2022-11-29T18:13:03.538Z,22.90
2022-11-29T18:15:39.136Z,25.00
2022-11-29T18:18:12.613Z,24.70
2022-11-29T18:20:46.395Z,23.00
2022-11-29T18:23:20.097Z,22.80
2022-11-29T18:26:03.989Z,24.50
2022-11-29T18:28:42.098Z,24.20
2022-11-29T18:31:18.936Z,26.90
2022-11-29T18:33:57.054Z,26.30
2022-11-29T18:36:32.809Z,24.40
2022-11-29T18:39:09.310Z,27.30
2022-11-29T18:41:45.137Z,25.40
2022-11-29T18:44:22.024Z,22.40
2022-11-29T18:46:57.231Z,24.60
2022-11-29T18:49:30.751Z,21.60
2022-11-29T18:52:04.755Z,23.60
2022-11-29T18:54:38.062Z,25.30
2022-11-29T18:57:11.496Z,25.20
2022-11-29T18:59:45.421Z,21.60
2022-11-29T19:02:20.461Z,23.00
2022-11-29T19:04:53.942Z,25.20
2022-11-29T19:07:29.645Z,26.50
2022-11-29T19:10:03.936Z,22.00
2022-11-29T19:12:37.198Z,23.50
2022-11-29T19:15:13.014Z,24.80
2022-11-29T19:17:46.398Z,25.60
2022-11-29T19:20:20.165Z,27.90
2022-11-29T19:23:00.174Z,24.90
2022-11-29T19:25:37.345Z,22.70
2022-11-29T19:28:14.063Z,23.10
2022-11-29T19:30:54.762Z,24.70
2022-11-29T19:33:28.031Z,24.20
2022-11-29T19:36:07.145Z,24.20
2022-11-29T19:38:42.139Z,24.20
2022-11-29T19:41:19.572Z,24.70
2022-11-29T19:43:54.160Z,24.60
2022-11-29T19:46:31.337Z,24.50
2022-11-29T19:49:08.157Z,25.80
2022-11-29T19:51:41.810Z,24.10
2022-11-29T19:54:15.793Z,24.50
2022-11-29T19:56:49.437Z,26.20
2022-11-29T19:59:23.269Z,25.10
2022-11-29T20:01:56.745Z,23.10
2022-11-29T20:04:30.366Z,23.80
2022-11-29T20:07:05.093Z,24.10
2022-11-29T20:09:38.439Z,26.60
2022-11-29T20:12:12.066Z,27.90
2022-11-29T20:14:45.908Z,25.00
2022-11-29T20:17:19.412Z,26.80
2022-11-29T20:19:53.363Z,24.20
2022-11-29T20:22:27.163Z,24.80
2022-11-29T20:25:00.522Z,28.60
2022-11-29T20:27:33.980Z,22.50
2022-11-29T20:30:10.724Z,24.80
2022-11-29T20:32:45.354Z,24.70
2022-11-29T20:35:21.292Z,26.90
2022-11-29T20:38:26.458Z,27.90
2022-11-29T20:41:10.142Z,26.30
2022-11-29T20:43:53.559Z,24.70
2022-11-29T20:46:29.188Z,22.10
2022-11-29T20:49:06.797Z,25.20
2022-11-29T20:51:49.451Z,25.20
2022-11-29T20:54:23.694Z,24.20
2022-11-29T20:56:57.321Z,27.30
2022-11-29T20:59:30.917Z,21.70
2022-11-29T21:02:04.754Z,24.30
2022-11-29T21:04:39.347Z,26.00
2022-11-29T21:07:13.240Z,26.80
2022-11-29T21:09:46.619Z,22.40
2022-11-29T21:12:22.136Z,26.00
2022-11-29T21:14:57.329Z,25.40
2022-11-29T21:17:33.966Z,26.30
2022-11-29T21:20:10.868Z,27.30
2022-11-29T21:22:54.791Z,25.70
2022-11-29T21:25:44.387Z,23.60
2022-11-29T21:28:19.819Z,26.60
2022-11-29T21:30:54.757Z,24.10
2022-11-29T21:33:31.628Z,26.30
2022-11-29T21:36:06.438Z,23.00
2022-11-29T21:38:39.679Z,24.40
2022-11-29T21:41:13.493Z,26.40
2022-11-29T21:46:41.640Z,23.70
2022-11-29T21:49:15.162Z,28.50
2022-11-29T21:51:49.142Z,25.20
2022-11-29T21:54:22.567Z,25.00
2022-11-29T21:56:56.707Z,25.30
2022-11-29T21:59:29.938Z,24.90
2022-11-29T22:02:03.612Z,23.20
2022-11-29T22:04:36.988Z,25.10
2022-11-29T22:07:11.263Z,28.10
2022-11-29T22:09:45.812Z,26.90
2022-11-29T22:12:33.721Z,22.90
2022-11-29T22:15:14.336Z,25.20
2022-11-29T22:17:48.096Z,25.40
2022-11-29T22:20:23.395Z,24.10
2022-11-29T22:22:58.814Z,27.20
2022-11-29T22:25:32.708Z,27.70
2022-11-29T22:28:06.579Z,27.10
2022-11-29T22:30:40.067Z,24.40
2022-11-29T22:33:14.016Z,28.70
2022-11-29T22:35:49.903Z,23.90
2022-11-29T22:38:23.542Z,21.40
2022-11-29T22:41:00.276Z,27.70
2022-11-29T22:43:36.063Z,31.80
2022-11-29T22:46:12.337Z,30.60
2022-11-29T22:48:49.125Z,29.00
2022-11-29T22:51:25.882Z,29.10
2022-11-29T22:54:01.062Z,25.90
2022-11-29T22:56:38.065Z,26.90
2022-11-29T22:59:12.794Z,29.60
2022-11-29T23:01:47.339Z,28.60
2022-11-29T23:04:21.121Z,30.20
2022-11-29T23:06:55.803Z,30.60
2022-11-29T23:09:29.984Z,25.20
2022-11-29T23:12:03.843Z,34.30
2022-11-29T23:14:37.304Z,33.20
2022-11-29T23:17:10.709Z,25.60
2022-11-29T23:19:44.249Z,25.50
2022-11-29T23:22:17.460Z,29.00
2022-11-29T23:24:50.675Z,33.00
2022-11-29T23:27:24.540Z,39.50
2022-11-29T23:29:58.669Z,34.50
2022-11-29T23:32:32.144Z,32.40
2022-11-29T23:35:05.653Z,34.20
2022-11-29T23:37:38.598Z,28.60
2022-11-29T23:40:15.306Z,31.20
2022-11-29T23:42:54.666Z,30.90
2022-11-29T23:45:29.043Z,34.40
2022-11-29T23:48:02.603Z,29.40
2022-11-29T23:50:36.292Z,28.80
2022-11-29T23:53:11.741Z,34.50
2022-11-29T23:55:47.982Z,29.50
2022-11-29T23:58:22.236Z,30.90
